Time;durP1;ratioP1;P1;durP2;ratioP2;P2;SDS_P1;SDS_P2;PMS_P1;PMS_P2;Temp;Humidity;BMP_temperature;BMP_pressure;BME280_temperature;BME280_humidity;BME280_pressure;Samples;Min_cycle;Max_cycle;Signal;HPM_P1;HPM_P2
2021/09/09 00:01:05;;;;;;;21.60;15.87;;;14.20;99.90;;;;;;5037072;28;20199;-73
2021/09/09 00:03:32;;;;;;;22.90;16.10;;;14.10;99.90;;;;;;5053338;28;20208;-73
2021/09/09 00:05:59;;;;;;;22.67;16.37;;;14.40;99.90;;;;;;5038632;28;20552;-73
2021/09/09 00:08:26;;;;;;;20.47;15.03;;;14.50;99.90;;;;;;5050654;28;20194;-73
2021/09/09 00:10:53;;;;;;;21.83;15.83;;;14.30;99.90;;;;;;5045052;28;20220;-73
2021/09/09 00:13:19;;;;;;;24.77;16.13;;;14.00;99.90;;;;;;5052644;28;20199;-73
2021/09/09 00:15:46;;;;;;;24.40;17.17;;;13.70;99.90;;;;;;5053146;28;20237;-73
2021/09/09 00:18:15;;;;;;;22.33;16.40;;;13.50;99.90;;;;;;5035411;28;20222;-72
2021/09/09 00:20:42;;;;;;;22.77;17.13;;;13.50;99.90;;;;;;5033628;28;20206;-73
2021/09/09 00:23:09;;;;;;;22.90;16.53;;;13.60;99.90;;;;;;5034149;28;20200;-73
2021/09/09 00:25:37;;;;;;;23.07;16.43;;;13.70;99.90;;;;;;5048077;28;20203;-73
2021/09/09 00:28:04;;;;;;;24.13;17.07;;;13.80;99.90;;;;;;5047574;28;20665;-73
2021/09/09 00:30:30;;;;;;;23.80;17.10;;;13.90;99.90;;;;;;5033231;28;20406;-73
2021/09/09 00:32:57;;;;;;;24.77;17.97;;;13.90;99.90;;;;;;5047187;28;20210;-73
2021/09/09 00:35:25;;;;;;;23.53;16.87;;;13.80;99.90;;;;;;5053545;28;20672;-73
2021/09/09 00:37:52;;;;;;;23.87;16.60;;;14.00;99.90;;;;;;5041356;28;20645;-73
2021/09/09 00:40:19;;;;;;;22.50;16.73;;;14.00;99.90;;;;;;5051579;28;20286;-73
2021/09/09 00:42:46;;;;;;;25.23;18.23;;;14.00;99.90;;;;;;5052775;28;20210;-73
2021/09/09 00:45:13;;;;;;;25.90;18.10;;;13.60;99.90;;;;;;5053627;28;20675;-73
2021/09/09 00:47:41;;;;;;;26.57;18.33;;;13.50;99.90;;;;;;5041909;28;20200;-73
2021/09/09 00:50:08;;;;;;;24.63;17.87;;;13.50;99.90;;;;;;5037486;28;20223;-73
2021/09/09 00:52:40;;;;;;;26.07;16.87;;;13.60;99.90;;;;;;5034457;28;20251;-73
2021/09/09 00:55:08;;;;;;;25.47;17.97;;;13.40;99.90;;;;;;5038350;28;20468;-73
2021/09/09 00:57:35;;;;;;;25.47;18.30;;;13.40;99.90;;;;;;5043583;28;20207;-73
2021/09/09 01:00:02;;;;;;;24.50;17.97;;;13.60;99.90;;;;;;5036284;28;20539;-73
2021/09/09 01:02:29;;;;;;;23.70;17.17;;;13.80;99.90;;;;;;5047515;28;20218;-73
2021/09/09 01:04:56;;;;;;;26.07;16.80;;;13.80;99.90;;;;;;5044588;28;20203;-73
2021/09/09 01:07:23;;;;;;;25.50;16.33;;;13.10;99.90;;;;;;5039229;28;20648;-73
2021/09/09 01:09:52;;;;;;;24.23;17.00;;;13.00;99.90;;;;;;5032007;28;20600;-73
2021/09/09 01:12:19;;;;;;;24.53;17.37;;;13.00;99.90;;;;;;5040619;28;20211;-73
2021/09/09 01:14:46;;;;;;;25.33;18.03;;;12.80;99.90;;;;;;5047932;28;20675;-72
2021/09/09 01:17:13;;;;;;;25.53;18.43;;;12.80;99.90;;;;;;5047823;28;20214;-73
2021/09/09 01:19:40;;;;;;;24.47;18.60;;;12.80;99.90;;;;;;5041949;28;20195;-73
2021/09/09 01:22:06;;;;;;;26.33;18.83;;;12.90;99.90;;;;;;5032160;28;20210;-73
2021/09/09 01:24:35;;;;;;;25.37;19.03;;;13.10;99.90;;;;;;5042340;28;20565;-73
2021/09/09 01:27:05;;;;;;;29.63;20.30;;;13.20;99.90;;;;;;5052582;28;20210;-73
2021/09/09 01:29:34;;;;;;;26.40;19.70;;;13.40;99.90;;;;;;5050830;28;20219;-73
2021/09/09 01:32:01;;;;;;;28.13;18.47;;;13.30;99.90;;;;;;5052357;28;20203;-73
2021/09/09 01:34:28;;;;;;;26.23;19.27;;;13.50;99.90;;;;;;5045503;28;20569;-73
2021/09/09 01:36:56;;;;;;;26.13;18.87;;;13.40;99.90;;;;;;5051450;28;20214;-73
2021/09/09 01:39:23;;;;;;;23.77;17.20;;;13.50;99.90;;;;;;5038604;28;20634;-73
2021/09/09 01:41:52;;;;;;;24.93;17.23;;;13.50;99.90;;;;;;5033920;28;20204;-73
2021/09/09 01:44:19;;;;;;;24.33;16.63;;;13.20;99.90;;;;;;5049447;28;20226;-72
2021/09/09 01:46:46;;;;;;;23.80;17.30;;;13.10;99.90;;;;;;5051177;28;20203;-73
2021/09/09 01:49:13;;;;;;;24.27;16.87;;;13.30;99.90;;;;;;5046314;28;20206;-73
2021/09/09 01:51:40;;;;;;;23.00;16.83;;;13.20;99.90;;;;;;5051453;28;20219;-73
2021/09/09 01:54:07;;;;;;;23.27;16.70;;;13.10;99.90;;;;;;5049562;28;20203;-73
2021/09/09 01:56:34;;;;;;;22.97;16.33;;;12.90;99.90;;;;;;5041764;28;20294;-73
2021/09/09 01:59:02;;;;;;;23.20;17.10;;;13.00;99.90;;;;;;5038145;28;20203;-73
2021/09/09 02:01:29;;;;;;;24.50;17.40;;;12.90;99.90;;;;;;5051101;28;20199;-73
2021/09/09 02:03:58;;;;;;;22.70;16.83;;;12.70;99.90;;;;;;5045273;28;20575;-73
2021/09/09 02:06:24;;;;;;;23.07;16.83;;;12.70;99.90;;;;;;5050557;28;20218;-73
2021/09/09 02:08:51;;;;;;;24.93;17.27;;;12.60;99.90;;;;;;5044562;28;20206;-73
2021/09/09 02:11:18;;;;;;;24.60;17.50;;;12.70;99.90;;;;;;5042624;28;20223;-73
2021/09/09 02:13:45;;;;;;;26.67;18.47;;;12.80;99.90;;;;;;5051497;28;20656;-72
2021/09/09 02:16:13;;;;;;;25.13;19.07;;;13.10;99.90;;;;;;5049649;28;20672;-73
2021/09/09 02:18:40;;;;;;;23.83;17.03;;;13.00;99.90;;;;;;5039145;28;20203;-73
2021/09/09 02:21:07;;;;;;;20.87;14.73;;;13.10;99.90;;;;;;5036138;28;20282;-73
2021/09/09 02:23:34;;;;;;;35.67;18.00;;;12.80;99.90;;;;;;5049713;28;20203;-72
2021/09/09 02:26:01;;;;;;;41.50;22.57;;;12.30;99.90;;;;;;5038201;28;20207;-73
2021/09/09 02:28:28;;;;;;;24.83;17.50;;;12.20;99.90;;;;;;5035894;28;20199;-73
2021/09/09 02:30:55;;;;;;;22.23;17.40;;;12.20;99.90;;;;;;5047082;28;20227;-72
2021/09/09 02:33:23;;;;;;;23.90;17.53;;;12.20;99.90;;;;;;5045748;28;20657;-73
2021/09/09 02:35:50;;;;;;;24.27;16.43;;;12.30;99.90;;;;;;5047268;28;20203;-73
2021/09/09 02:38:17;;;;;;;23.30;17.73;;;12.40;99.90;;;;;;5040179;28;20213;-73
2021/09/09 02:40:44;;;;;;;24.33;16.57;;;12.50;99.90;;;;;;5038707;28;20223;-73
2021/09/09 02:43:11;;;;;;;24.93;16.70;;;12.50;99.90;;;;;;5046175;28;20218;-73
2021/09/09 02:45:37;;;;;;;24.17;16.63;;;12.50;99.90;;;;;;5031987;28;20203;-73
2021/09/09 02:48:05;;;;;;;25.93;18.07;;;12.70;99.90;;;;;;5032145;28;20691;-72
2021/09/09 02:50:33;;;;;;;25.63;18.90;;;12.70;99.90;;;;;;5045449;28;20223;-72
2021/09/09 02:53:00;;;;;;;25.03;18.37;;;12.80;99.90;;;;;;5049585;28;20199;-73
2021/09/09 02:55:27;;;;;;;22.17;15.60;;;12.70;99.90;;;;;;5043887;28;20407;-72
2021/09/09 02:57:54;;;;;;;20.80;14.70;;;12.60;99.90;;;;;;5030472;28;20214;-72
2021/09/09 03:00:21;;;;;;;51.87;16.80;;;12.60;99.90;;;;;;5047005;28;20191;-72
2021/09/09 03:02:49;;;;;;;55.30;23.90;;;12.10;99.90;;;;;;5044280;28;20203;-72
2021/09/09 03:05:16;;;;;;;29.30;20.10;;;11.70;99.90;;;;;;5037835;28;20203;-72
2021/09/09 03:07:44;;;;;;;22.47;15.80;;;11.60;99.90;;;;;;5042918;28;20673;-72
2021/09/09 03:10:11;;;;;;;22.93;14.87;;;11.80;99.90;;;;;;5048760;28;20221;-72
2021/09/09 03:12:39;;;;;;;19.87;13.27;;;12.00;99.90;;;;;;5045144;28;20203;-73
2021/09/09 03:15:07;;;;;;;21.70;15.63;;;12.20;99.90;;;;;;5050969;28;20199;-72
2021/09/09 03:17:34;;;;;;;24.60;16.33;;;12.10;99.90;;;;;;5048897;28;20195;-72
2021/09/09 03:20:01;;;;;;;23.03;15.67;;;12.00;99.90;;;;;;5030442;28;20204;-72
2021/09/09 03:22:27;;;;;;;22.93;16.10;;;11.90;99.90;;;;;;5035276;28;20202;-73
2021/09/09 03:24:56;;;;;;;24.03;16.17;;;12.00;99.90;;;;;;5050567;28;20680;-72
2021/09/09 03:27:24;;;;;;;21.20;15.03;;;12.10;99.90;;;;;;5049879;28;20191;-72
2021/09/09 03:29:50;;;;;;;21.73;14.83;;;12.10;99.90;;;;;;5030834;28;20204;-72
2021/09/09 03:32:17;;;;;;;22.47;16.07;;;12.10;99.90;;;;;;5032708;28;20696;-72
2021/09/09 03:34:44;;;;;;;22.13;16.10;;;12.10;99.90;;;;;;5051293;28;20193;-72
2021/09/09 03:37:11;;;;;;;21.07;15.27;;;11.90;99.90;;;;;;5049063;28;20661;-72
2021/09/09 03:39:38;;;;;;;22.43;15.60;;;12.00;99.90;;;;;;5046894;28;20210;-72
2021/09/09 03:42:06;;;;;;;22.57;15.30;;;12.10;99.90;;;;;;5053954;28;20550;-72
2021/09/09 03:44:33;;;;;;;21.13;15.20;;;12.20;99.90;;;;;;5054122;28;20691;-72
2021/09/09 03:47:00;;;;;;;36.00;17.60;;;12.20;99.90;;;;;;5054134;28;20293;-72
2021/09/09 03:49:26;;;;;;;24.40;16.07;;;12.00;99.90;;;;;;5050617;28;20209;-72
2021/09/09 03:51:53;;;;;;;22.83;14.77;;;11.90;99.90;;;;;;5054434;28;20322;-72
2021/09/09 03:54:20;;;;;;;28.97;15.23;;;11.90;99.90;;;;;;5036232;28;20200;-72
2021/09/09 03:56:47;;;;;;;19.63;14.97;;;11.90;99.90;;;;;;5033443;28;20295;-73
2021/09/09 03:59:15;;;;;;;15.63;12.23;;;11.70;99.90;;;;;;5033672;28;20195;-72
2021/09/09 04:01:42;;;;;;;16.20;11.93;;;11.60;99.90;;;;;;5035865;28;21819;-72
2021/09/09 04:04:09;;;;;;;20.73;12.47;;;11.50;99.90;;;;;;5048801;28;20206;-72
2021/09/09 04:06:36;;;;;;;16.90;12.80;;;11.40;99.90;;;;;;5050548;28;20199;-72
2021/09/09 04:09:03;;;;;;;21.57;15.60;;;11.60;99.90;;;;;;5048198;28;20203;-72
2021/09/09 04:11:30;;;;;;;20.67;14.77;;;11.50;99.90;;;;;;5052930;28;20215;-72
2021/09/09 04:13:57;;;;;;;20.13;14.90;;;11.60;99.90;;;;;;5054025;28;20214;-72
2021/09/09 04:16:25;;;;;;;19.47;14.37;;;11.60;99.90;;;;;;5049102;28;20208;-72
2021/09/09 04:18:52;;;;;;;20.83;14.77;;;11.60;99.90;;;;;;5051975;28;20583;-72
2021/09/09 04:21:19;;;;;;;23.27;15.00;;;11.70;99.90;;;;;;5044331;28;20195;-72
2021/09/09 04:23:45;;;;;;;22.07;14.70;;;11.60;99.90;;;;;;5051360;28;20203;-72
2021/09/09 04:26:12;;;;;;;20.90;15.27;;;11.70;99.90;;;;;;5047199;28;20195;-72
2021/09/09 04:28:39;;;;;;;23.47;15.70;;;11.70;99.90;;;;;;5036765;28;20207;-72
2021/09/09 04:31:06;;;;;;;24.07;15.37;;;11.60;99.90;;;;;;5038604;28;20230;-72
2021/09/09 04:33:34;;;;;;;23.23;16.50;;;11.80;99.90;;;;;;5049321;28;20210;-72
2021/09/09 04:36:01;;;;;;;21.77;15.40;;;11.80;99.90;;;;;;5037079;28;20199;-73
2021/09/09 04:38:28;;;;;;;20.47;14.27;;;11.80;99.90;;;;;;5050814;28;20649;-72
2021/09/09 04:40:55;;;;;;;24.67;15.97;;;11.90;99.90;;;;;;5037488;28;20192;-72
2021/09/09 04:43:21;;;;;;;23.03;15.63;;;11.90;99.90;;;;;;5040314;28;20588;-73
2021/09/09 04:45:48;;;;;;;22.73;14.93;;;11.90;99.90;;;;;;5035339;28;20210;-73
2021/09/09 04:48:15;;;;;;;21.53;15.20;;;12.00;99.90;;;;;;5044529;28;20206;-73
2021/09/09 04:50:43;;;;;;;22.30;15.73;;;11.80;99.90;;;;;;5048433;28;20214;-74
2021/09/09 04:53:10;;;;;;;22.53;15.23;;;11.90;99.90;;;;;;5045851;28;20294;-73
2021/09/09 04:55:37;;;;;;;22.80;15.03;;;11.90;99.90;;;;;;5048239;28;20207;-73
2021/09/09 04:58:04;;;;;;;24.13;15.93;;;11.80;99.90;;;;;;5052691;28;20207;-73
2021/09/09 05:00:31;;;;;;;23.07;16.57;;;12.00;99.90;;;;;;5046165;28;20203;-73
2021/09/09 05:02:58;;;;;;;18.50;13.80;;;12.10;99.90;;;;;;5051098;28;20782;-73
2021/09/09 05:05:24;;;;;;;25.03;15.10;;;12.00;99.90;;;;;;5049952;28;20199;-72
2021/09/09 05:07:53;;;;;;;17.73;10.53;;;11.80;99.90;;;;;;5046807;28;20208;-73
2021/09/09 05:10:19;;;;;;;30.10;13.60;;;11.80;99.90;;;;;;5045479;28;20204;-73
2021/09/09 05:12:46;;;;;;;39.43;15.07;;;11.80;99.90;;;;;;5039255;28;20771;-73
2021/09/09 05:15:13;;;;;;;32.87;15.83;;;11.80;99.90;;;;;;5045164;28;20302;-73
2021/09/09 05:17:40;;;;;;;34.50;16.07;;;11.90;99.90;;;;;;5032519;28;20249;-73
2021/09/09 05:20:08;;;;;;;39.33;17.60;;;11.80;99.90;;;;;;5042271;28;20625;-73
2021/09/09 05:22:35;;;;;;;40.53;16.33;;;11.90;99.90;;;;;;5047556;28;20188;-73
2021/09/09 05:25:05;;;;;;;52.60;19.10;;;12.10;99.90;;;;;;5032991;28;20617;-73
2021/09/09 05:27:32;;;;;;;44.53;18.27;;;12.00;99.90;;;;;;5033132;28;20764;-72
2021/09/09 05:29:59;;;;;;;42.93;18.07;;;11.90;99.90;;;;;;5052418;28;20202;-73
2021/09/09 05:32:26;;;;;;;41.97;19.20;;;11.80;99.90;;;;;;5049759;28;20218;-72
2021/09/09 05:34:53;;;;;;;34.97;17.57;;;12.00;99.90;;;;;;5033006;28;20581;-72
2021/09/09 05:37:20;;;;;;;36.87;18.10;;;12.00;99.90;;;;;;5042303;28;20206;-73
2021/09/09 05:39:46;;;;;;;36.27;18.67;;;12.00;99.90;;;;;;5051368;28;20736;-73
2021/09/09 05:42:15;;;;;;;29.47;17.93;;;12.10;99.90;;;;;;5049034;28;20199;-73
2021/09/09 05:44:41;;;;;;;37.97;17.07;;;12.30;99.90;;;;;;5036044;28;20211;-73
2021/09/09 05:47:09;;;;;;;38.10;19.00;;;12.30;99.90;;;;;;5032999;28;20209;-73
2021/09/09 05:49:36;;;;;;;35.57;18.47;;;12.60;99.90;;;;;;5050191;28;20572;-73
2021/09/09 05:52:03;;;;;;;31.40;17.03;;;12.70;99.90;;;;;;5039129;28;20219;-73
2021/09/09 05:54:31;;;;;;;36.07;19.10;;;12.70;99.90;;;;;;5034293;28;20199;-73
2021/09/09 05:56:58;;;;;;;33.43;17.60;;;12.90;99.90;;;;;;5033961;28;20649;-74
2021/09/09 05:59:26;;;;;;;33.20;18.97;;;13.00;99.90;;;;;;5043550;28;20540;-73
2021/09/09 06:01:54;;;;;;;28.00;16.63;;;13.00;99.90;;;;;;5051678;28;20184;-73
2021/09/09 06:04:22;;;;;;;37.67;17.20;;;13.00;99.90;;;;;;5048973;28;20213;-73
2021/09/09 06:06:50;;;;;;;31.07;17.53;;;13.10;99.90;;;;;;5035375;28;20569;-73
2021/09/09 06:09:16;;;;;;;32.73;17.37;;;13.20;99.90;;;;;;5046512;28;20227;-73
2021/09/09 06:11:43;;;;;;;26.87;16.00;;;13.30;99.90;;;;;;5050580;28;20305;-73
2021/09/09 06:14:10;;;;;;;26.10;16.37;;;13.20;99.90;;;;;;5051516;28;20573;-73
2021/09/09 06:16:39;;;;;;;27.30;16.00;;;13.20;99.90;;;;;;5045785;28;20899;-73
2021/09/09 06:19:06;;;;;;;24.53;15.93;;;13.20;99.90;;;;;;5044621;28;20211;-73
2021/09/09 06:21:33;;;;;;;25.80;16.27;;;13.30;99.90;;;;;;5036067;28;20200;-76
2021/09/09 06:24:00;;;;;;;27.73;16.23;;;13.40;99.90;;;;;;5032175;28;20250;-76
2021/09/09 06:26:27;;;;;;;28.67;17.23;;;13.50;99.90;;;;;;5033138;28;20257;-76
2021/09/09 06:28:54;;;;;;;24.90;16.97;;;13.60;99.90;;;;;;5043534;28;20210;-76
2021/09/09 06:31:21;;;;;;;28.90;18.00;;;13.60;99.90;;;;;;5038154;28;20219;-76
2021/09/09 06:33:49;;;;;;;26.33;18.10;;;13.90;99.90;;;;;;5051423;28;20207;-76
2021/09/09 06:36:18;;;;;;;27.90;16.03;;;14.10;99.90;;;;;;5040184;28;20202;-77
2021/09/09 06:38:45;;;;;;;27.73;18.07;;;14.10;99.90;;;;;;5038966;28;20236;-77
2021/09/09 06:41:11;;;;;;;32.70;17.43;;;14.10;99.90;;;;;;5043914;28;20202;-76
2021/09/09 06:43:38;;;;;;;29.67;17.60;;;14.10;99.90;;;;;;5035569;28;20219;-76
2021/09/09 06:46:05;;;;;;;30.37;16.93;;;14.30;99.90;;;;;;5039167;28;20199;-76
2021/09/09 06:48:32;;;;;;;34.63;17.87;;;14.30;99.90;;;;;;5039942;28;20207;-76
2021/09/09 06:51:01;;;;;;;28.77;17.30;;;14.40;99.90;;;;;;5042247;28;20203;-76
2021/09/09 06:53:28;;;;;;;28.33;17.53;;;14.50;99.90;;;;;;5046755;28;20196;-77
2021/09/09 06:55:55;;;;;;;24.87;17.03;;;14.70;99.90;;;;;;5032590;28;20286;-76
2021/09/09 06:58:22;;;;;;;30.23;17.30;;;14.70;99.90;;;;;;5039287;28;20590;-77
2021/09/09 07:00:50;;;;;;;27.20;16.47;;;14.80;99.90;;;;;;5046691;28;20211;-76
2021/09/09 07:03:17;;;;;;;24.43;16.70;;;14.90;99.90;;;;;;5041546;28;20250;-76
2021/09/09 07:05:44;;;;;;;24.83;17.10;;;15.00;99.90;;;;;;5035739;28;20649;-76
2021/09/09 07:08:12;;;;;;;26.23;17.20;;;15.00;99.90;;;;;;5037353;28;20290;-76
2021/09/09 07:10:39;;;;;;;23.70;16.67;;;15.20;99.90;;;;;;5034991;28;20203;-76
2021/09/09 07:13:06;;;;;;;24.20;16.10;;;15.40;99.90;;;;;;5045166;28;20223;-76
2021/09/09 07:15:33;;;;;;;22.23;16.37;;;15.40;99.90;;;;;;5042404;28;20574;-77
2021/09/09 07:18:00;;;;;;;22.47;17.00;;;15.50;99.90;;;;;;5041426;28;20206;-76
2021/09/09 07:20:27;;;;;;;22.70;15.97;;;15.60;99.90;;;;;;5036378;28;20302;-77
2021/09/09 07:22:53;;;;;;;22.43;16.80;;;15.60;99.90;;;;;;5045243;28;20194;-77
2021/09/09 07:25:22;;;;;;;22.13;16.37;;;15.60;99.90;;;;;;5040356;28;20202;-77
2021/09/09 07:27:49;;;;;;;23.77;16.80;;;15.80;99.90;;;;;;5043717;28;20203;-77
2021/09/09 07:30:15;;;;;;;31.70;15.85;;;15.90;99.90;;;;;;5039027;28;20638;-77
2021/09/09 07:32:42;;;;;;;21.77;15.87;;;16.00;99.90;;;;;;5042924;28;20227;-76
2021/09/09 07:35:10;;;;;;;21.60;16.20;;;16.10;99.90;;;;;;5042903;28;20214;-76
2021/09/09 07:37:37;;;;;;;21.45;15.38;;;16.30;99.90;;;;;;5040156;28;20651;-77
2021/09/09 07:40:05;;;;;;;20.75;15.13;;;16.40;99.90;;;;;;5044400;28;20650;-77
2021/09/09 07:42:33;;;;;;;21.30;13.75;;;16.60;99.90;;;;;;5047448;28;20274;-76
2021/09/09 07:45:00;;;;;;;20.23;14.40;;;16.70;99.90;;;;;;5040613;28;20286;-77
2021/09/09 07:47:27;;;;;;;21.02;13.35;;;16.80;99.90;;;;;;5035357;28;20642;-77
2021/09/09 07:49:54;;;;;;;23.17;13.95;;;17.00;99.90;;;;;;5053030;28;20301;-77
2021/09/09 07:52:21;;;;;;;18.50;12.20;;;17.10;99.90;;;;;;5041488;28;20230;-77
2021/09/09 07:54:47;;;;;;;16.92;11.60;;;17.30;99.90;;;;;;5050404;28;20198;-77
2021/09/09 07:57:14;;;;;;;18.23;12.75;;;17.50;99.90;;;;;;5044006;28;20199;-77
2021/09/09 07:59:42;;;;;;;21.15;11.75;;;17.50;99.90;;;;;;5053177;28;20201;-77
2021/09/09 08:02:09;;;;;;;16.83;10.75;;;17.70;99.90;;;;;;5047239;28;20195;-77
2021/09/09 08:04:36;;;;;;;17.92;10.82;;;17.90;99.90;;;;;;5040579;28;20203;-77
2021/09/09 08:07:03;;;;;;;16.45;10.30;;;18.00;99.90;;;;;;5034141;28;20208;-77
2021/09/09 08:09:30;;;;;;;14.93;10.52;;;18.10;99.90;;;;;;5035951;28;20235;-77
2021/09/09 08:11:57;;;;;;;17.10;10.93;;;18.20;99.90;;;;;;5061527;28;20235;-77
2021/09/09 08:14:27;;;;;;;20.20;10.90;;;18.30;99.90;;;;;;5038441;28;20195;-75
2021/09/09 08:16:55;;;;;;;18.58;10.73;;;18.50;99.90;;;;;;5047892;28;20221;-77
2021/09/09 08:19:22;;;;;;;18.70;10.98;;;18.40;99.90;;;;;;5042633;28;20565;-76
2021/09/09 08:21:49;;;;;;;16.55;11.07;;;18.60;99.90;;;;;;5040316;28;20553;-76
2021/09/09 08:24:15;;;;;;;16.38;10.60;;;18.60;99.90;;;;;;5045029;28;20203;-76
2021/09/09 08:26:42;;;;;;;18.67;10.35;;;18.90;99.90;;;;;;5046610;28;20199;-76
2021/09/09 08:29:09;;;;;;;17.70;10.05;;;19.40;99.90;;;;;;5040469;28;20207;-76
2021/09/09 08:31:37;;;;;;;16.55;10.95;;;19.40;99.90;;;;;;5044034;28;20226;-76
2021/09/09 08:34:06;;;;;;;16.52;10.35;;;19.30;99.90;;;;;;5048139;28;20729;-77
2021/09/09 08:36:33;;;;;;;13.20;9.07;;;19.40;99.90;;;;;;5039232;28;20211;-76
2021/09/09 08:39:00;;;;;;;18.17;9.60;;;19.70;99.90;;;;;;5039815;28;20709;-76
2021/09/09 08:41:27;;;;;;;13.52;9.77;;;19.80;99.90;;;;;;5041465;28;20211;-76
2021/09/09 08:43:54;;;;;;;15.75;9.65;;;19.90;99.90;;;;;;5047129;28;20211;-76
2021/09/09 08:46:21;;;;;;;16.05;9.75;;;20.10;99.90;;;;;;5037924;28;20556;-76
2021/09/09 08:48:49;;;;;;;13.82;9.90;;;20.10;99.90;;;;;;5043563;28;20211;-76
2021/09/09 08:51:18;;;;;;;12.73;9.00;;;20.30;99.90;;;;;;5028670;28;20603;-76
2021/09/09 08:53:45;;;;;;;13.18;9.30;;;20.40;99.90;;;;;;5044113;28;20215;-76
2021/09/09 08:56:15;;;;;;;15.93;9.25;;;20.40;99.90;;;;;;5048129;28;20203;-76
2021/09/09 08:58:42;;;;;;;11.77;8.75;;;20.60;99.90;;;;;;5043073;28;20261;-77
2021/09/09 09:01:11;;;;;;;11.82;8.50;;;20.80;99.90;;;;;;5047023;28;20199;-77
2021/09/09 09:03:46;;;;;;;15.10;8.68;;;20.80;99.90;;;;;;5047933;28;20194;-77
2021/09/09 09:06:36;;;;;;;13.02;8.20;;;21.20;99.90;;;;;;5044941;28;20203;-77
2021/09/09 09:09:06;;;;;;;11.95;8.88;;;21.40;99.90;;;;;;5035184;28;20575;-77
2021/09/09 09:11:37;;;;;;;13.77;9.30;;;21.80;99.90;;;;;;5039441;28;20572;-77
2021/09/09 09:14:07;;;;;;;11.90;8.00;;;22.40;99.90;;;;;;5035521;28;20582;-76
2021/09/09 09:16:34;;;;;;;13.65;8.30;;;23.10;99.90;;;;;;5032191;28;20213;-77
2021/09/09 09:19:01;;;;;;;13.45;8.93;;;23.60;99.90;;;;;;5047481;28;20218;-76
2021/09/09 09:21:33;;;;;;;12.77;8.27;;;23.60;99.90;;;;;;5044217;28;20676;-76
2021/09/09 09:24:03;;;;;;;10.77;7.78;;;23.80;99.90;;;;;;5048910;28;20654;-77
2021/09/09 09:26:30;;;;;;;167.15;24.33;;;24.40;99.90;;;;;;5042299;28;20206;-77
2021/09/09 09:29:00;;;;;;;20.27;8.75;;;24.70;99.90;;;;;;5041612;28;20211;-76
2021/09/09 09:31:30;;;;;;;16.98;8.05;;;25.00;99.90;;;;;;5046348;28;20211;-77
2021/09/09 09:33:58;;;;;;;11.32;7.50;;;25.30;99.90;;;;;;5043454;28;20254;-77
2021/09/09 09:36:28;;;;;;;9.52;7.15;;;25.80;99.90;;;;;;5037010;28;20509;-77
2021/09/09 09:38:57;;;;;;;11.70;7.85;;;25.60;99.90;;;;;;5039422;28;20199;-77
2021/09/09 09:41:26;;;;;;;12.95;7.25;;;25.80;99.90;;;;;;5037124;28;20207;-77
2021/09/09 09:43:55;;;;;;;9.63;7.72;;;26.10;99.90;;;;;;5049225;28;20211;-74
2021/09/09 09:46:34;;;;;;;10.52;7.60;;;26.10;99.90;;;;;;5048507;28;20215;-75
2021/09/09 09:49:18;;;;;;;12.10;7.63;;;26.20;99.90;;;;;;5047226;28;20234;-74
2021/09/09 09:51:47;;;;;;;10.38;7.15;;;26.10;99.90;;;;;;5034445;28;20678;-75
2021/09/09 09:54:16;;;;;;;10.45;7.53;;;26.10;99.90;;;;;;5041306;28;20896;-75
2021/09/09 09:56:46;;;;;;;9.02;7.05;;;26.30;99.90;;;;;;5042173;28;20246;-75
2021/09/09 09:59:14;;;;;;;8.95;7.50;;;26.70;99.90;;;;;;5047120;28;20222;-74
2021/09/09 10:01:42;;;;;;;11.30;7.53;;;26.80;99.90;;;;;;5044132;28;20294;-75
2021/09/09 10:04:11;;;;;;;9.77;6.65;;;26.90;99.90;;;;;;5035598;28;20195;-75
2021/09/09 10:06:38;;;;;;;21.60;8.13;;;27.00;99.90;;;;;;5043022;28;20254;-76
2021/09/09 10:09:06;;;;;;;12.93;7.78;;;27.10;99.90;;;;;;5046736;28;20202;-74
2021/09/09 10:11:34;;;;;;;17.77;7.72;;;27.50;99.90;;;;;;5047367;28;20195;-75
2021/09/09 10:14:04;;;;;;;20.02;7.95;;;27.70;99.90;;;;;;5041175;28;20593;-75
2021/09/09 10:16:35;;;;;;;10.60;7.45;;;27.70;99.90;;;;;;5043463;28;20199;-75
2021/09/09 10:19:02;;;;;;;8.20;7.20;;;27.70;99.90;;;;;;5043578;28;20580;-75
2021/09/09 10:21:41;;;;;;;9.32;6.88;;;27.60;99.90;;;;;;5040269;28;20230;-75
2021/09/09 10:24:16;;;;;;;10.80;7.35;;;27.50;99.90;;;;;;5041309;28;20211;-75
2021/09/09 10:26:43;;;;;;;10.23;7.32;;;27.50;99.90;;;;;;5035447;28;20700;-75
2021/09/09 10:29:43;;;;;;;12.98;7.75;;;27.60;99.90;;;;;;5045308;28;20206;-75
2021/09/09 10:32:56;;;;;;;11.55;7.97;;;27.60;99.90;;;;;;5039961;28;20649;-75
2021/09/09 10:35:38;;;;;;;14.27;8.13;;;28.00;99.20;;;;;;5042551;28;20231;-76
2021/09/09 10:38:31;;;;;;;11.02;7.53;;;28.10;99.90;;;;;;5044724;28;20733;-74
2021/09/09 10:41:03;;;;;;;13.13;7.82;;;28.00;99.90;;;;;;5042483;28;20213;-75
2021/09/09 10:43:50;;;;;;;10.82;8.23;;;28.00;99.40;;;;;;5036317;28;20737;-76
2021/09/09 10:46:17;;;;;;;9.73;7.30;;;27.70;99.90;;;;;;5037609;28;20841;-75
2021/09/09 10:48:48;;;;;;;10.63;7.38;;;28.10;99.90;;;;;;5048713;28;20701;-75
2021/09/09 10:51:19;;;;;;;12.38;7.70;;;28.60;99.90;;;;;;5049734;28;20202;-75
2021/09/09 10:53:53;;;;;;;11.00;7.50;;;28.60;99.90;;;;;;5042807;28;20257;-75
2021/09/09 10:56:22;;;;;;;11.32;7.10;;;28.60;99.40;;;;;;5050178;28;20206;-75
2021/09/09 10:59:14;;;;;;;10.23;7.85;;;28.40;99.60;;;;;;5036257;28;20887;-75
2021/09/09 11:01:44;;;;;;;11.57;7.30;;;28.20;99.20;;;;;;5046948;28;20206;-75
2021/09/09 11:04:30;;;;;;;8.88;6.80;;;28.80;99.00;;;;;;5053635;28;20199;-75
2021/09/09 11:06:57;;;;;;;9.82;7.28;;;28.60;99.00;;;;;;5054741;28;20688;-75
2021/09/09 11:09:25;;;;;;;7.65;6.68;;;29.10;99.60;;;;;;5053423;28;20199;-75
2021/09/09 11:12:03;;;;;;;11.10;7.22;;;29.10;98.40;;;;;;5039391;28;20261;-75
2021/09/09 11:14:30;;;;;;;10.43;7.30;;;29.10;97.50;;;;;;5042893;28;20689;-74
2021/09/09 11:16:58;;;;;;;11.07;6.93;;;29.30;97.70;;;;;;5045375;28;20205;-74
2021/09/09 11:19:25;;;;;;;10.98;7.85;;;29.10;98.80;;;;;;5052282;28;20719;-75
2021/09/09 11:21:54;;;;;;;11.60;7.57;;;29.40;99.00;;;;;;5052069;28;20669;-75
2021/09/09 11:24:22;;;;;;;10.43;7.68;;;29.50;98.40;;;;;;5050843;28;20203;-75
2021/09/09 11:26:51;;;;;;;9.27;7.60;;;29.60;98.60;;;;;;5036703;28;20196;-75
2021/09/09 11:29:22;;;;;;;8.55;7.30;;;29.20;97.90;;;;;;5047938;28;20203;-75
2021/09/09 11:31:50;;;;;;;11.90;6.90;;;29.20;96.90;;;;;;5046454;28;20215;-75
2021/09/09 11:34:23;;;;;;;9.98;6.82;;;29.40;97.10;;;;;;5052511;28;20229;-75
2021/09/09 11:36:50;;;;;;;7.03;6.13;;;29.10;96.60;;;;;;5047673;28;20211;-75
2021/09/09 11:39:21;;;;;;;9.40;7.78;;;29.50;96.30;;;;;;5038190;28;20208;-75
2021/09/09 11:41:51;;;;;;;8.73;6.80;;;29.40;97.00;;;;;;5052320;28;20670;-76
2021/09/09 11:44:27;;;;;;;7.35;6.07;;;29.40;95.30;;;;;;5052016;28;20654;-75
2021/09/09 11:46:55;;;;;;;7.78;6.97;;;29.60;96.80;;;;;;5041955;28;20213;-75
2021/09/09 11:49:25;;;;;;;10.55;7.55;;;29.40;95.60;;;;;;5043439;28;20211;-75
2021/09/09 11:51:53;;;;;;;8.32;6.70;;;29.50;95.50;;;;;;5037076;28;20203;-75
2021/09/09 11:54:25;;;;;;;9.65;7.10;;;29.50;96.20;;;;;;5048107;28;20261;-75
2021/09/09 11:56:53;;;;;;;10.43;7.05;;;29.40;95.10;;;;;;5046373;28;20211;-75
2021/09/09 11:59:20;;;;;;;8.43;7.18;;;29.50;95.70;;;;;;5045830;28;20568;-75
2021/09/09 12:01:51;;;;;;;9.60;6.93;;;30.00;97.00;;;;;;5045966;28;20211;-75
2021/09/09 12:04:18;;;;;;;10.43;7.15;;;29.70;96.40;;;;;;5051226;28;20195;-75
2021/09/09 12:06:47;;;;;;;8.27;7.05;;;30.00;95.60;;;;;;5040430;28;20624;-75
2021/09/09 12:09:25;;;;;;;8.30;6.80;;;29.70;94.40;;;;;;5046101;28;20213;-74
2021/09/09 12:12:07;;;;;;;9.55;7.28;;;29.30;94.90;;;;;;5035897;28;20687;-75
2021/09/09 12:14:35;;;;;;;8.45;6.80;;;30.10;94.90;;;;;;5040886;28;20223;-75
2021/09/09 12:17:11;;;;;;;8.27;6.85;;;30.20;96.30;;;;;;5037946;28;20635;-75
2021/09/09 12:19:55;;;;;;;8.20;6.20;;;29.80;94.50;;;;;;5050042;28;20221;-75
2021/09/09 12:22:22;;;;;;;10.35;6.93;;;29.80;95.10;;;;;;5049297;28;20577;-74
2021/09/09 12:24:50;;;;;;;7.28;6.57;;;29.90;94.20;;;;;;5044017;28;20666;-75
2021/09/09 12:27:19;;;;;;;9.73;7.75;;;30.00;95.80;;;;;;5046958;28;20254;-75
2021/09/09 12:29:47;;;;;;;8.50;6.70;;;29.70;96.20;;;;;;5045404;28;20203;-75
2021/09/09 12:32:28;;;;;;;8.45;6.95;;;29.70;94.90;;;;;;5047823;28;20301;-75
2021/09/09 12:35:14;;;;;;;11.75;6.68;;;28.80;95.00;;;;;;5044716;28;20727;-75
2021/09/09 12:37:40;;;;;;;10.57;7.00;;;29.00;97.30;;;;;;5029733;28;20209;-75